Orrs Island, Maine
Current Conditions -  °F | °C
As of 7:51 AM on Thursday 23 Oct 2014 (Local Time) from KPWM Reporting Station
Overcast Overcast  
Wind Chill: 50°   Ceiling: 1400
Heat Index: 50°   Visibility: 10mi
Dew Point: 47°   Wind: 23mph
Humidity: 89%   Direction: 30°NNE
Pressure: 29.77"   Gusts: 33mph
Location:  43.76°N, 69.98°W
Report Text: KPWM 231151Z 03020G29KT 10SM OVC014 10/08 A2977 RMK AO2 PK WND 02030/1056 RAE42 SLP082 P0002 60020 70081 T01000083 10100 20094 58023
Loading
Personal Weather Stations






























Interactive Weather Map
Tropical Storm Tracking
New forecast layout! Learn more

10-Day Weather Forecast

Advertisements
Track Severe Weather on mobile